Terminal Aerodrome Forecast
Issued by NWS

Home | Current Version | Previous Version | Text Only | Print | Product List | Glossary On
Versions: 1 2 3 4 5 6 7 8 9 10 11 12 13 14 15 16
000
FTUS41 KPBZ 210800 AAA
TAFHLG
TAF AMD
KHLG 210802Z 2108/2206 23005KT P6SM SCT008 BKN015
      TEMPO 2109/2113 BKN008
     FM211500 26008KT P6SM -SHRA OVC015
     FM212100 29008KT P6SM VCSH BKN020=

USA.gov is the U.S. government's official web portal to all federal, state and local government web resources and services.